sensor_id;sensor_type;location;lat;lon;timestamp;pressure;altitude;pressure_sealevel;temperature;humidity
63281;BME280;49406;51.044;3.766;2022-11-27T00:01:56;102460.09;;;6.46;100.00
63281;BME280;49406;51.044;3.766;2022-11-27T00:04:31;102447.45;;;6.54;100.00
63281;BME280;49406;51.044;3.766;2022-11-27T00:07:05;102441.36;;;6.54;100.00
63281;BME280;49406;51.044;3.766;2022-11-27T00:09:40;102434.50;;;6.45;100.00
63281;BME280;49406;51.044;3.766;2022-11-27T00:12:15;102424.66;;;6.53;100.00
63281;BME280;49406;51.044;3.766;2022-11-27T00:14:49;102418.48;;;6.58;100.00
63281;BME280;49406;51.044;3.766;2022-11-27T00:17:24;102412.33;;;6.57;100.00
63281;BME280;49406;51.044;3.766;2022-11-27T00:19:58;102402.80;;;6.47;100.00
63281;BME280;49406;51.044;3.766;2022-11-27T00:22:33;102401.27;;;6.55;100.00
63281;BME280;49406;51.044;3.766;2022-11-27T00:25:09;102399.89;;;6.58;100.00
63281;BME280;49406;51.044;3.766;2022-11-27T00:27:43;102402.49;;;6.62;100.00
63281;BME280;49406;51.044;3.766;2022-11-27T00:30:18;102409.52;;;6.53;100.00
63281;BME280;49406;51.044;3.766;2022-11-27T00:32:52;102411.42;;;6.56;100.00
63281;BME280;49406;51.044;3.766;2022-11-27T00:35:25;102414.05;;;6.63;100.00
63281;BME280;49406;51.044;3.766;2022-11-27T00:38:00;102407.66;;;6.61;100.00
63281;BME280;49406;51.044;3.766;2022-11-27T00:40:35;102401.73;;;6.57;100.00
63281;BME280;49406;51.044;3.766;2022-11-27T00:43:09;102397.17;;;6.67;100.00
63281;BME280;49406;51.044;3.766;2022-11-27T00:45:49;102390.06;;;6.70;100.00
63281;BME280;49406;51.044;3.766;2022-11-27T00:48:23;102385.73;;;6.63;100.00
63281;BME280;49406;51.044;3.766;2022-11-27T00:51:00;102384.40;;;6.75;100.00
63281;BME280;49406;51.044;3.766;2022-11-27T00:53:35;102373.69;;;6.81;100.00
63281;BME280;49406;51.044;3.766;2022-11-27T00:56:10;102364.92;;;6.75;100.00
63281;BME280;49406;51.044;3.766;2022-11-27T00:58:48;102362.52;;;6.73;100.00
63281;BME280;49406;51.044;3.766;2022-11-27T01:01:25;102362.72;;;6.84;100.00
63281;BME280;49406;51.044;3.766;2022-11-27T01:04:02;102363.03;;;6.87;100.00
63281;BME280;49406;51.044;3.766;2022-11-27T01:06:37;102361.83;;;6.90;100.00
63281;BME280;49406;51.044;3.766;2022-11-27T01:09:12;102354.34;;;6.83;100.00
63281;BME280;49406;51.044;3.766;2022-11-27T01:11:45;102351.66;;;6.93;100.00
63281;BME280;49406;51.044;3.766;2022-11-27T01:14:20;102358.15;;;7.02;100.00
63281;BME280;49406;51.044;3.766;2022-11-27T01:16:55;102362.48;;;6.94;100.00
63281;BME280;49406;51.044;3.766;2022-11-27T01:19:29;102366.74;;;6.95;100.00
63281;BME280;49406;51.044;3.766;2022-11-27T01:22:04;102360.27;;;7.02;100.00
63281;BME280;49406;51.044;3.766;2022-11-27T01:24:38;102352.38;;;7.04;100.00
63281;BME280;49406;51.044;3.766;2022-11-27T01:27:13;102348.16;;;6.96;100.00
63281;BME280;49406;51.044;3.766;2022-11-27T01:29:48;102346.72;;;6.99;100.00
63281;BME280;49406;51.044;3.766;2022-11-27T01:32:22;102338.72;;;7.06;100.00
63281;BME280;49406;51.044;3.766;2022-11-27T01:34:55;102329.28;;;7.09;100.00
63281;BME280;49406;51.044;3.766;2022-11-27T01:37:28;102328.13;;;6.99;100.00
63281;BME280;49406;51.044;3.766;2022-11-27T01:40:03;102315.02;;;7.02;100.00
63281;BME280;49406;51.044;3.766;2022-11-27T01:42:37;102313.64;;;7.09;100.00
63281;BME280;49406;51.044;3.766;2022-11-27T01:45:16;102303.48;;;7.11;100.00
63281;BME280;49406;51.044;3.766;2022-11-27T01:47:54;102300.89;;;7.00;100.00
63281;BME280;49406;51.044;3.766;2022-11-27T01:50:32;102295.52;;;7.01;100.00
63281;BME280;49406;51.044;3.766;2022-11-27T01:53:11;102307.93;;;7.10;100.00
63281;BME280;49406;51.044;3.766;2022-11-27T01:55:49;102295.79;;;7.14;100.00
63281;BME280;49406;51.044;3.766;2022-11-27T01:58:28;102292.80;;;7.06;100.00
63281;BME280;49406;51.044;3.766;2022-11-27T02:01:03;102280.15;;;7.07;100.00
63281;BME280;49406;51.044;3.766;2022-11-27T02:03:36;102268.45;;;7.18;100.00
63281;BME280;49406;51.044;3.766;2022-11-27T02:06:12;102275.33;;;7.19;100.00
63281;BME280;49406;51.044;3.766;2022-11-27T02:08:47;102273.63;;;7.16;100.00
63281;BME280;49406;51.044;3.766;2022-11-27T02:11:21;102277.50;;;7.29;100.00
63281;BME280;49406;51.044;3.766;2022-11-27T02:14:02;102283.52;;;7.31;100.00
63281;BME280;49406;51.044;3.766;2022-11-27T02:16:43;102279.79;;;7.26;100.00
63281;BME280;49406;51.044;3.766;2022-11-27T02:19:32;102281.20;;;7.38;100.00
63281;BME280;49406;51.044;3.766;2022-11-27T02:22:22;102274.11;;;7.43;100.00
63281;BME280;49406;51.044;3.766;2022-11-27T02:25:09;102289.72;;;7.34;100.00
63281;BME280;49406;51.044;3.766;2022-11-27T02:27:59;102314.66;;;7.47;100.00
63281;BME280;49406;51.044;3.766;2022-11-27T02:30:40;102318.75;;;7.53;100.00
63281;BME280;49406;51.044;3.766;2022-11-27T02:33:19;102319.60;;;7.49;100.00
63281;BME280;49406;51.044;3.766;2022-11-27T02:35:57;102320.45;;;7.44;100.00
63281;BME280;49406;51.044;3.766;2022-11-27T02:38:35;102324.80;;;7.56;100.00
63281;BME280;49406;51.044;3.766;2022-11-27T02:41:14;102318.35;;;7.60;100.00
63281;BME280;49406;51.044;3.766;2022-11-27T02:43:52;102314.98;;;7.50;100.00
63281;BME280;49406;51.044;3.766;2022-11-27T02:46:28;102314.31;;;7.47;100.00
63281;BME280;49406;51.044;3.766;2022-11-27T02:49:06;102307.88;;;7.51;100.00
63281;BME280;49406;51.044;3.766;2022-11-27T02:51:45;102297.52;;;7.49;100.00
63281;BME280;49406;51.044;3.766;2022-11-27T02:54:25;102307.14;;;7.42;100.00
63281;BME280;49406;51.044;3.766;2022-11-27T02:56:59;102294.44;;;7.27;100.00
63281;BME280;49406;51.044;3.766;2022-11-27T02:59:37;102281.98;;;7.32;100.00
63281;BME280;49406;51.044;3.766;2022-11-27T03:02:15;102291.23;;;7.33;100.00
63281;BME280;49406;51.044;3.766;2022-11-27T03:04:54;102291.05;;;7.29;100.00
63281;BME280;49406;51.044;3.766;2022-11-27T03:07:34;102291.47;;;7.15;100.00
63281;BME280;49406;51.044;3.766;2022-11-27T03:10:15;102291.17;;;7.20;100.00
63281;BME280;49406;51.044;3.766;2022-11-27T03:12:50;102289.45;;;7.24;100.00
63281;BME280;49406;51.044;3.766;2022-11-27T03:15:26;102298.02;;;7.25;100.00
63281;BME280;49406;51.044;3.766;2022-11-27T03:18:08;102298.36;;;7.13;100.00
63281;BME280;49406;51.044;3.766;2022-11-27T03:20:43;102296.52;;;7.15;100.00
63281;BME280;49406;51.044;3.766;2022-11-27T03:23:21;102286.41;;;7.18;100.00
63281;BME280;49406;51.044;3.766;2022-11-27T03:25:55;102286.39;;;7.18;100.00
63281;BME280;49406;51.044;3.766;2022-11-27T03:28:28;102279.84;;;7.04;100.00
63281;BME280;49406;51.044;3.766;2022-11-27T03:31:04;102280.67;;;7.03;100.00
63281;BME280;49406;51.044;3.766;2022-11-27T03:33:39;102278.10;;;7.08;100.00
63281;BME280;49406;51.044;3.766;2022-11-27T03:36:17;102277.56;;;7.07;100.00
63281;BME280;49406;51.044;3.766;2022-11-27T03:38:50;102271.56;;;6.94;100.00
63281;BME280;49406;51.044;3.766;2022-11-27T03:41:35;102273.73;;;6.92;100.00
63281;BME280;49406;51.044;3.766;2022-11-27T03:44:20;102267.62;;;6.95;100.00
63281;BME280;49406;51.044;3.766;2022-11-27T03:47:03;102263.07;;;6.91;100.00
63281;BME280;49406;51.044;3.766;2022-11-27T03:49:50;102260.09;;;6.79;100.00
63281;BME280;49406;51.044;3.766;2022-11-27T03:52:36;102257.66;;;6.87;100.00
63281;BME280;49406;51.044;3.766;2022-11-27T03:55:11;102258.04;;;6.87;100.00
63281;BME280;49406;51.044;3.766;2022-11-27T03:57:56;102259.25;;;6.83;100.00
63281;BME280;49406;51.044;3.766;2022-11-27T04:00:36;102259.05;;;6.72;100.00
63281;BME280;49406;51.044;3.766;2022-11-27T04:03:13;102258.86;;;6.78;100.00
63281;BME280;49406;51.044;3.766;2022-11-27T04:05:47;102257.23;;;6.81;100.00
63281;BME280;49406;51.044;3.766;2022-11-27T04:08:22;102256.19;;;6.81;100.00
63281;BME280;49406;51.044;3.766;2022-11-27T04:10:57;102254.17;;;6.68;100.00
63281;BME280;49406;51.044;3.766;2022-11-27T04:13:31;102252.23;;;6.74;100.00
63281;BME280;49406;51.044;3.766;2022-11-27T04:16:07;102252.46;;;6.79;100.00
63281;BME280;49406;51.044;3.766;2022-11-27T04:18:41;102250.23;;;6.80;100.00
63281;BME280;49406;51.044;3.766;2022-11-27T04:21:16;102244.62;;;6.68;100.00
63281;BME280;49406;51.044;3.766;2022-11-27T04:23:50;102237.70;;;6.68;100.00
63281;BME280;49406;51.044;3.766;2022-11-27T04:26:23;102238.52;;;6.74;100.00
63281;BME280;49406;51.044;3.766;2022-11-27T04:28:58;102235.92;;;6.71;100.00
63281;BME280;49406;51.044;3.766;2022-11-27T04:31:32;102237.27;;;6.59;100.00
63281;BME280;49406;51.044;3.766;2022-11-27T04:34:05;102234.93;;;6.65;100.00
63281;BME280;49406;51.044;3.766;2022-11-27T04:36:40;102232.80;;;6.68;100.00
63281;BME280;49406;51.044;3.766;2022-11-27T04:39:15;102224.33;;;6.65;100.00
63281;BME280;49406;51.044;3.766;2022-11-27T04:41:49;102219.63;;;6.53;100.00
63281;BME280;49406;51.044;3.766;2022-11-27T04:44:24;102216.95;;;6.59;100.00
63281;BME280;49406;51.044;3.766;2022-11-27T04:46:58;102215.62;;;6.60;100.00
63281;BME280;49406;51.044;3.766;2022-11-27T04:49:33;102212.86;;;6.61;100.00
63281;BME280;49406;51.044;3.766;2022-11-27T04:52:08;102211.23;;;6.56;100.00
63281;BME280;49406;51.044;3.766;2022-11-27T04:54:43;102207.20;;;6.48;100.00
63281;BME280;49406;51.044;3.766;2022-11-27T04:57:18;102207.17;;;6.55;100.00
63281;BME280;49406;51.044;3.766;2022-11-27T04:59:51;102205.02;;;6.57;100.00
63281;BME280;49406;51.044;3.766;2022-11-27T05:02:26;102204.50;;;6.56;100.00
63281;BME280;49406;51.044;3.766;2022-11-27T05:05:00;102200.33;;;6.49;100.00
63281;BME280;49406;51.044;3.766;2022-11-27T05:07:35;102195.23;;;6.44;100.00
63281;BME280;49406;51.044;3.766;2022-11-27T05:10:11;102192.77;;;6.52;100.00
63281;BME280;49406;51.044;3.766;2022-11-27T05:12:46;102193.58;;;6.54;100.00
63281;BME280;49406;51.044;3.766;2022-11-27T05:15:20;102194.36;;;6.55;100.00
63281;BME280;49406;51.044;3.766;2022-11-27T05:17:55;102191.86;;;6.43;100.00
63281;BME280;49406;51.044;3.766;2022-11-27T05:20:29;102187.89;;;6.47;100.00
63281;BME280;49406;51.044;3.766;2022-11-27T05:23:04;102183.40;;;6.52;100.00
63281;BME280;49406;51.044;3.766;2022-11-27T05:25:37;102184.21;;;6.54;100.00
63281;BME280;49406;51.044;3.766;2022-11-27T05:28:12;102187.16;;;6.50;100.00
63281;BME280;49406;51.044;3.766;2022-11-27T05:30:47;102187.27;;;6.45;100.00
63281;BME280;49406;51.044;3.766;2022-11-27T05:33:22;102185.41;;;6.54;100.00
63281;BME280;49406;51.044;3.766;2022-11-27T05:35:56;102182.41;;;6.56;100.00
63281;BME280;49406;51.044;3.766;2022-11-27T05:38:31;102179.74;;;6.55;100.00
63281;BME280;49406;51.044;3.766;2022-11-27T05:41:06;102176.87;;;6.46;100.00
63281;BME280;49406;51.044;3.766;2022-11-27T05:43:40;102174.45;;;6.53;100.00
63281;BME280;49406;51.044;3.766;2022-11-27T05:46:16;102172.23;;;6.57;100.00
63281;BME280;49406;51.044;3.766;2022-11-27T05:48:51;102170.35;;;6.58;100.00
63281;BME280;49406;51.044;3.766;2022-11-27T05:51:26;102167.04;;;6.47;100.00
63281;BME280;49406;51.044;3.766;2022-11-27T05:54:00;102167.02;;;6.51;100.00
63281;BME280;49406;51.044;3.766;2022-11-27T05:56:33;102166.70;;;6.55;100.00
63281;BME280;49406;51.044;3.766;2022-11-27T05:59:08;102166.29;;;6.57;100.00
63281;BME280;49406;51.044;3.766;2022-11-27T06:01:43;102155.71;;;6.50;100.00
63281;BME280;49406;51.044;3.766;2022-11-27T06:04:18;102156.92;;;6.47;100.00
63281;BME280;49406;51.044;3.766;2022-11-27T06:06:53;102151.37;;;6.54;100.00
63281;BME280;49406;51.044;3.766;2022-11-27T06:09:27;102147.05;;;6.55;100.00
63281;BME280;49406;51.044;3.766;2022-11-27T06:12:02;102145.38;;;6.56;100.00
63281;BME280;49406;51.044;3.766;2022-11-27T06:14:37;102145.73;;;6.56;100.00
63281;BME280;49406;51.044;3.766;2022-11-27T06:17:11;102141.73;;;6.44;100.00
63281;BME280;49406;51.044;3.766;2022-11-27T06:19:48;102136.56;;;6.46;100.00
63281;BME280;49406;51.044;3.766;2022-11-27T06:22:23;102138.36;;;6.51;100.00
63281;BME280;49406;51.044;3.766;2022-11-27T06:24:58;102130.52;;;6.50;100.00
63281;BME280;49406;51.044;3.766;2022-11-27T06:27:34;102125.42;;;6.45;100.00
63281;BME280;49406;51.044;3.766;2022-11-27T06:30:10;102121.58;;;6.37;100.00
63281;BME280;49406;51.044;3.766;2022-11-27T06:32:45;102113.21;;;6.44;100.00
63281;BME280;49406;51.044;3.766;2022-11-27T06:35:19;102114.05;;;6.47;100.00
63281;BME280;49406;51.044;3.766;2022-11-27T06:37:55;102111.86;;;6.45;100.00
63281;BME280;49406;51.044;3.766;2022-11-27T06:40:29;102111.33;;;6.37;100.00
63281;BME280;49406;51.044;3.766;2022-11-27T06:43:04;102109.40;;;6.44;100.00
63281;BME280;49406;51.044;3.766;2022-11-27T06:45:38;102106.94;;;6.47;100.00
63281;BME280;49406;51.044;3.766;2022-11-27T06:48:13;102108.06;;;6.49;100.00
63281;BME280;49406;51.044;3.766;2022-11-27T06:50:47;102103.63;;;6.51;100.00
63281;BME280;49406;51.044;3.766;2022-11-27T06:53:22;102099.21;;;6.50;100.00
63281;BME280;49406;51.044;3.766;2022-11-27T06:55:55;102099.86;;;6.40;100.00
63281;BME280;49406;51.044;3.766;2022-11-27T06:58:29;102098.16;;;6.49;100.00
63281;BME280;49406;51.044;3.766;2022-11-27T07:01:06;102093.38;;;6.51;100.00
63281;BME280;49406;51.044;3.766;2022-11-27T07:03:41;102089.23;;;6.52;100.00
63281;BME280;49406;51.044;3.766;2022-11-27T07:06:19;102087.19;;;6.41;100.00
63281;BME280;49406;51.044;3.766;2022-11-27T07:08:54;102085.17;;;6.47;100.00
63281;BME280;49406;51.044;3.766;2022-11-27T07:11:30;102080.48;;;6.50;100.00
63281;BME280;49406;51.044;3.766;2022-11-27T07:14:05;102070.20;;;6.50;100.00
63281;BME280;49406;51.044;3.766;2022-11-27T07:16:40;102065.52;;;6.50;100.00
63281;BME280;49406;51.044;3.766;2022-11-27T07:19:15;102058.48;;;6.48;100.00
63281;BME280;49406;51.044;3.766;2022-11-27T07:21:49;102051.95;;;6.37;100.00
63281;BME280;49406;51.044;3.766;2022-11-27T07:24:24;102057.18;;;6.46;100.00
63281;BME280;49406;51.044;3.766;2022-11-27T07:26:58;102049.88;;;6.45;100.00
63281;BME280;49406;51.044;3.766;2022-11-27T07:29:33;102052.05;;;6.48;100.00
63281;BME280;49406;51.044;3.766;2022-11-27T07:32:07;102048.45;;;6.49;100.00
63281;BME280;49406;51.044;3.766;2022-11-27T07:34:42;102046.80;;;6.39;100.00
63281;BME280;49406;51.044;3.766;2022-11-27T07:37:16;102046.66;;;6.40;100.00
63281;BME280;49406;51.044;3.766;2022-11-27T07:39:51;102049.50;;;6.45;100.00
63281;BME280;49406;51.044;3.766;2022-11-27T07:42:26;102045.34;;;6.45;100.00
63281;BME280;49406;51.044;3.766;2022-11-27T07:45:01;102050.05;;;6.46;100.00
63281;BME280;49406;51.044;3.766;2022-11-27T07:47:35;102049.21;;;6.46;100.00
63281;BME280;49406;51.044;3.766;2022-11-27T07:50:12;102050.10;;;6.47;100.00
63281;BME280;49406;51.044;3.766;2022-11-27T07:52:46;102043.98;;;6.34;100.00
63281;BME280;49406;51.044;3.766;2022-11-27T07:55:21;102041.48;;;6.40;100.00
63281;BME280;49406;51.044;3.766;2022-11-27T07:57:55;102042.95;;;6.46;100.00
63281;BME280;49406;51.044;3.766;2022-11-27T08:00:30;102045.92;;;6.47;100.00
63281;BME280;49406;51.044;3.766;2022-11-27T08:03:05;102043.70;;;6.47;100.00
63281;BME280;49406;51.044;3.766;2022-11-27T08:05:39;102040.92;;;6.36;100.00
63281;BME280;49406;51.044;3.766;2022-11-27T08:08:14;102033.88;;;6.38;100.00
63281;BME280;49406;51.044;3.766;2022-11-27T08:10:48;102029.75;;;6.42;100.00
63281;BME280;49406;51.044;3.766;2022-11-27T08:13:23;102024.23;;;6.43;100.00
63281;BME280;49406;51.044;3.766;2022-11-27T08:16:00;102016.79;;;6.44;100.00
63281;BME280;49406;51.044;3.766;2022-11-27T08:18:34;102015.92;;;6.32;100.00
63281;BME280;49406;51.044;3.766;2022-11-27T08:21:09;102012.86;;;6.41;100.00
63281;BME280;49406;51.044;3.766;2022-11-27T08:23:44;102010.31;;;6.47;100.00
63281;BME280;49406;51.044;3.766;2022-11-27T08:26:19;102010.05;;;6.49;100.00
63281;BME280;49406;51.044;3.766;2022-11-27T08:28:52;102008.54;;;6.50;100.00
63281;BME280;49406;51.044;3.766;2022-11-27T08:31:27;102016.17;;;6.42;100.00
63281;BME280;49406;51.044;3.766;2022-11-27T08:34:02;102016.42;;;6.47;100.00
63281;BME280;49406;51.044;3.766;2022-11-27T08:36:36;102012.06;;;6.51;100.00
63281;BME280;49406;51.044;3.766;2022-11-27T08:39:11;102010.42;;;6.54;100.00
63281;BME280;49406;51.044;3.766;2022-11-27T08:41:46;102010.29;;;6.54;100.00
63281;BME280;49406;51.044;3.766;2022-11-27T08:44:20;102012.94;;;6.51;100.00
63281;BME280;49406;51.044;3.766;2022-11-27T08:46:55;102009.33;;;6.44;100.00
63281;BME280;49406;51.044;3.766;2022-11-27T08:49:30;102008.25;;;6.51;100.00
63281;BME280;49406;51.044;3.766;2022-11-27T08:52:04;102003.33;;;6.54;100.00
63281;BME280;49406;51.044;3.766;2022-11-27T08:54:39;102004.16;;;6.57;100.00
63281;BME280;49406;51.044;3.766;2022-11-27T08:57:15;102000.10;;;6.55;100.00
63281;BME280;49406;51.044;3.766;2022-11-27T08:59:49;102000.46;;;6.48;100.00
63281;BME280;49406;51.044;3.766;2022-11-27T09:02:24;101997.33;;;6.55;100.00
63281;BME280;49406;51.044;3.766;2022-11-27T09:04:57;101991.33;;;6.57;100.00
63281;BME280;49406;51.044;3.766;2022-11-27T09:07:31;101995.41;;;6.59;100.00
63281;BME280;49406;51.044;3.766;2022-11-27T09:10:07;101999.13;;;6.61;100.00
63281;BME280;49406;51.044;3.766;2022-11-27T09:12:42;101997.91;;;6.61;100.00
63281;BME280;49406;51.044;3.766;2022-11-27T09:15:17;101987.95;;;6.52;100.00
63281;BME280;49406;51.044;3.766;2022-11-27T09:17:53;101989.04;;;6.61;100.00
63281;BME280;49406;51.044;3.766;2022-11-27T09:20:28;101991.67;;;6.66;100.00
63281;BME280;49406;51.044;3.766;2022-11-27T09:23:03;101990.02;;;6.68;100.00
63281;BME280;49406;51.044;3.766;2022-11-27T09:25:39;101991.46;;;6.69;100.00
63281;BME280;49406;51.044;3.766;2022-11-27T09:28:14;101994.89;;;6.68;100.00
63281;BME280;49406;51.044;3.766;2022-11-27T09:30:53;101992.23;;;6.58;100.00
63281;BME280;49406;51.044;3.766;2022-11-27T09:33:29;101987.16;;;6.66;100.00
63281;BME280;49406;51.044;3.766;2022-11-27T09:36:07;101989.50;;;6.72;100.00
63281;BME280;49406;51.044;3.766;2022-11-27T09:38:43;101991.92;;;6.75;100.00
63281;BME280;49406;51.044;3.766;2022-11-27T09:41:31;101984.17;;;6.77;100.00
63281;BME280;49406;51.044;3.766;2022-11-27T09:44:13;101976.02;;;6.74;100.00
63281;BME280;49406;51.044;3.766;2022-11-27T09:46:47;101968.69;;;6.69;100.00
63281;BME280;49406;51.044;3.766;2022-11-27T09:49:25;101964.39;;;6.74;100.00
63281;BME280;49406;51.044;3.766;2022-11-27T09:52:00;101965.22;;;6.77;100.00
63281;BME280;49406;51.044;3.766;2022-11-27T09:54:39;101969.81;;;6.79;100.00
63281;BME280;49406;51.044;3.766;2022-11-27T09:57:17;101971.31;;;6.73;100.00
63281;BME280;49406;51.044;3.766;2022-11-27T09:59:54;101968.64;;;6.72;100.00
63281;BME280;49406;51.044;3.766;2022-11-27T10:02:33;101965.62;;;6.78;100.00
63281;BME280;49406;51.044;3.766;2022-11-27T10:05:15;101957.01;;;6.80;100.00
63281;BME280;49406;51.044;3.766;2022-11-27T10:08:05;101953.06;;;6.82;100.00
63281;BME280;49406;51.044;3.766;2022-11-27T10:10:55;101945.90;;;6.72;100.00
63281;BME280;49406;51.044;3.766;2022-11-27T10:13:49;101950.46;;;6.82;100.00
63281;BME280;49406;51.044;3.766;2022-11-27T10:16:37;101947.00;;;6.87;100.00
63281;BME280;49406;51.044;3.766;2022-11-27T10:19:26;101948.85;;;6.89;100.00
63281;BME280;49406;51.044;3.766;2022-11-27T10:22:09;101942.05;;;6.80;100.00
63281;BME280;49406;51.044;3.766;2022-11-27T10:24:55;101936.83;;;6.84;100.00
63281;BME280;49406;51.044;3.766;2022-11-27T10:27:37;101938.39;;;6.92;100.00
63281;BME280;49406;51.044;3.766;2022-11-27T10:30:15;101931.10;;;6.98;100.00
63281;BME280;49406;51.044;3.766;2022-11-27T10:32:54;101923.83;;;7.03;100.00
63281;BME280;49406;51.044;3.766;2022-11-27T10:35:31;101928.12;;;7.01;100.00
63281;BME280;49406;51.044;3.766;2022-11-27T10:38:12;101923.90;;;7.00;100.00
63281;BME280;49406;51.044;3.766;2022-11-27T10:40:51;101927.92;;;7.09;100.00
63281;BME280;49406;51.044;3.766;2022-11-27T10:43:26;101927.25;;;7.14;100.00
63281;BME280;49406;51.044;3.766;2022-11-27T10:46:04;101922.89;;;7.18;100.00
63281;BME280;49406;51.044;3.766;2022-11-27T10:48:40;101928.79;;;7.18;100.00
63281;BME280;49406;51.044;3.766;2022-11-27T10:51:18;101923.32;;;7.16;100.00
63281;BME280;49406;51.044;3.766;2022-11-27T10:53:54;101913.58;;;7.24;100.00
63281;BME280;49406;51.044;3.766;2022-11-27T10:56:41;101906.14;;;7.30;100.00
63281;BME280;49406;51.044;3.766;2022-11-27T10:59:26;101900.10;;;7.36;100.00
63281;BME280;49406;51.044;3.766;2022-11-27T11:02:04;101891.92;;;7.40;100.00
63281;BME280;49406;51.044;3.766;2022-11-27T11:04:41;101885.10;;;7.30;100.00
63281;BME280;49406;51.044;3.766;2022-11-27T11:07:25;101877.77;;;7.35;100.00
63281;BME280;49406;51.044;3.766;2022-11-27T11:10:00;101872.55;;;7.39;100.00
63281;BME280;49406;51.044;3.766;2022-11-27T11:12:35;101867.98;;;7.42;100.00
63281;BME280;49406;51.044;3.766;2022-11-27T11:15:12;101863.15;;;7.43;100.00
63281;BME280;49406;51.044;3.766;2022-11-27T11:17:47;101855.73;;;7.36;100.00
63281;BME280;49406;51.044;3.766;2022-11-27T11:20:22;101853.01;;;7.38;100.00
63281;BME280;49406;51.044;3.766;2022-11-27T11:22:56;101839.13;;;7.43;100.00
63281;BME280;49406;51.044;3.766;2022-11-27T11:25:31;101832.96;;;7.45;100.00
63281;BME280;49406;51.044;3.766;2022-11-27T11:28:13;101830.75;;;7.47;100.00
63281;BME280;49406;51.044;3.766;2022-11-27T11:30:56;101826.48;;;7.35;100.00
63281;BME280;49406;51.044;3.766;2022-11-27T11:33:38;101823.25;;;7.37;100.00
63281;BME280;49406;51.044;3.766;2022-11-27T11:36:13;101821.41;;;7.39;100.00
63281;BME280;49406;51.044;3.766;2022-11-27T11:38:49;101813.33;;;7.41;100.00
63281;BME280;49406;51.044;3.766;2022-11-27T11:41:24;101810.68;;;7.45;100.00
63281;BME280;49406;51.044;3.766;2022-11-27T11:44:22;101813.52;;;7.47;100.00
63281;BME280;49406;51.044;3.766;2022-11-27T11:46:59;101810.75;;;7.47;100.00
63281;BME280;49406;51.044;3.766;2022-11-27T11:49:35;101808.58;;;7.36;100.00
63281;BME280;49406;51.044;3.766;2022-11-27T11:52:36;101800.33;;;7.43;100.00
63281;BME280;49406;51.044;3.766;2022-11-27T11:55:21;101798.85;;;7.45;100.00
63281;BME280;49406;51.044;3.766;2022-11-27T11:58:23;101797.68;;;7.47;100.00
63281;BME280;49406;51.044;3.766;2022-11-27T12:01:12;101791.90;;;7.51;100.00
63281;BME280;49406;51.044;3.766;2022-11-27T12:04:04;101788.98;;;7.52;100.00
63281;BME280;49406;51.044;3.766;2022-11-27T12:06:51;101778.05;;;7.42;100.00
63281;BME280;49406;51.044;3.766;2022-11-27T12:09:45;101777.38;;;7.48;100.00
63281;BME280;49406;51.044;3.766;2022-11-27T12:12:32;101772.55;;;7.50;100.00
63281;BME280;49406;51.044;3.766;2022-11-27T12:15:10;101770.72;;;7.52;100.00
63281;BME280;49406;51.044;3.766;2022-11-27T12:17:55;101762.59;;;7.39;100.00
63281;BME280;49406;51.044;3.766;2022-11-27T12:20:42;101765.00;;;7.43;100.00
63281;BME280;49406;51.044;3.766;2022-11-27T12:23:34;101761.69;;;7.47;100.00
63281;BME280;49406;51.044;3.766;2022-11-27T12:26:18;101760.73;;;7.49;100.00
63281;BME280;49406;51.044;3.766;2022-11-27T12:29:15;101753.62;;;7.51;100.00
63281;BME280;49406;51.044;3.766;2022-11-27T12:32:09;101747.91;;;7.52;100.00
63281;BME280;49406;51.044;3.766;2022-11-27T12:35:00;101737.96;;;7.51;100.00
63281;BME280;49406;51.044;3.766;2022-11-27T12:37:47;101732.77;;;7.61;100.00
63281;BME280;49406;51.044;3.766;2022-11-27T12:40:37;101730.91;;;7.69;100.00
63281;BME280;49406;51.044;3.766;2022-11-27T12:43:22;101724.06;;;7.67;100.00
63281;BME280;49406;51.044;3.766;2022-11-27T12:46:00;101720.55;;;7.61;100.00
63281;BME280;49406;51.044;3.766;2022-11-27T12:48:38;101723.08;;;7.73;100.00
63281;BME280;49406;51.044;3.766;2022-11-27T12:51:14;101718.30;;;7.76;100.00
63281;BME280;49406;51.044;3.766;2022-11-27T12:53:53;101716.35;;;7.65;100.00
63281;BME280;49406;51.044;3.766;2022-11-27T12:56:32;101709.08;;;7.71;100.00
63281;BME280;49406;51.044;3.766;2022-11-27T12:59:15;101711.20;;;7.77;100.00
63281;BME280;49406;51.044;3.766;2022-11-27T13:01:54;101705.37;;;7.80;100.00
63281;BME280;49406;51.044;3.766;2022-11-27T13:04:36;101707.02;;;7.77;100.00
63281;BME280;49406;51.044;3.766;2022-11-27T13:07:17;101703.73;;;7.68;100.00
63281;BME280;49406;51.044;3.766;2022-11-27T13:09:51;101693.15;;;7.74;100.00
63281;BME280;49406;51.044;3.766;2022-11-27T13:12:31;101693.92;;;7.75;100.00
63281;BME280;49406;51.044;3.766;2022-11-27T13:15:18;101692.33;;;7.75;100.00
63281;BME280;49406;51.044;3.766;2022-11-27T13:17:59;101685.08;;;7.72;100.00
63281;BME280;49406;51.044;3.766;2022-11-27T13:20:38;101678.02;;;7.59;100.00
63281;BME280;49406;51.044;3.766;2022-11-27T13:23:12;101675.59;;;7.59;100.00
63281;BME280;49406;51.044;3.766;2022-11-27T13:25:50;101674.39;;;7.64;100.00
63281;BME280;49406;51.044;3.766;2022-11-27T13:28:33;101673.55;;;7.66;100.00
63281;BME280;49406;51.044;3.766;2022-11-27T13:31:19;101673.06;;;7.67;100.00
63281;BME280;49406;51.044;3.766;2022-11-27T13:34:01;101667.69;;;7.62;100.00
63281;BME280;49406;51.044;3.766;2022-11-27T13:36:35;101663.31;;;7.56;100.00
63281;BME280;49406;51.044;3.766;2022-11-27T13:39:22;101659.46;;;7.60;100.00
63281;BME280;49406;51.044;3.766;2022-11-27T13:42:04;101658.75;;;7.60;100.00
63281;BME280;49406;51.044;3.766;2022-11-27T13:44:43;101657.48;;;7.59;100.00